Time;durP1;ratioP1;P1;durP2;ratioP2;P2;SDS_P1;SDS_P2;PMS_P1;PMS_P2;Temp;Humidity;BMP_temperature;BMP_pressure;BME280_temperature;BME280_humidity;BME280_pressure;Samples;Min_cycle;Max_cycle;Signal;HPM_P1;HPM_P2
2022/08/04 00:01:01;;;;;;;1.63;1.53;;;;;;;;;;5072164;28;20205;-81
2022/08/04 00:03:34;;;;;;;6.00;1.83;;;;;;;;;;5069447;28;20221;-81
2022/08/04 00:06:05;;;;;;;1.83;1.43;;;;;;;;;;5055581;28;20210;-81
2022/08/04 00:08:36;;;;;;;1.80;1.70;;;;;;;;;;5066544;28;20205;-81
2022/08/04 00:11:05;;;;;;;1.00;1.00;;;;;;;;;;5056195;28;20208;-81
2022/08/04 00:13:38;;;;;;;3.00;1.17;;;;;;;;;;5070374;28;20216;-81
2022/08/04 00:16:28;;;;;;;1.87;1.60;;;;;;;;;;5056175;28;20209;-81
2022/08/04 00:19:03;;;;;;;1.37;1.00;;;;;;;;;;5056011;28;20209;-81
2022/08/04 00:21:36;;;;;;;0.67;0.67;;;;;;;;;;5064627;28;20208;-81
2022/08/04 00:24:06;;;;;;;1.80;1.70;;;;;;;;;;5065308;28;20213;-81
2022/08/04 00:26:40;;;;;;;0.50;0.50;;;;;;;;;;5066636;28;20195;-81
2022/08/04 00:29:09;;;;;;;1.40;0.50;;;;;;;;;;5066687;28;20198;-81
2022/08/04 00:31:37;;;;;;;4.03;3.40;;;;;;;;;;5054817;28;20231;-81
2022/08/04 00:34:25;;;;;;;0.20;0.20;;;;;;;;;;5054895;28;20253;-81
2022/08/04 00:36:55;;;;;;;0.20;0.20;;;;;;;;;;5054832;28;20209;-81
2022/08/04 00:39:24;;;;;;;0.20;0.20;;;;;;;;;;5071144;28;20216;-81
2022/08/04 00:42:04;;;;;;;0.30;0.30;;;;;;;;;;5068034;28;20203;-81
2022/08/04 00:44:37;;;;;;;0.40;0.40;;;;;;;;;;5065993;28;20203;-81
2022/08/04 00:47:17;;;;;;;0.40;0.40;;;;;;;;;;5054963;28;20210;-81
2022/08/04 00:49:58;;;;;;;2.70;2.03;;;;;;;;;;5071939;28;20205;-81
2022/08/04 00:52:34;;;;;;;0.30;0.30;;;;;;;;;;5069686;28;20206;-81
2022/08/04 00:55:10;;;;;;;0.20;0.20;;;;;;;;;;5054268;28;20201;-82
2022/08/04 00:57:51;;;;;;;0.20;0.20;;;;;;;;;;5055071;28;20311;-81
2022/08/04 01:00:20;;;;;;;4.47;1.90;;;;;;;;;;5067607;28;20192;-82
2022/08/04 01:02:56;;;;;;;1.10;1.10;;;;;;;;;;5065592;28;20204;-82
2022/08/04 01:05:30;;;;;;;2.20;0.93;;;;;;;;;;5068153;28;20210;-81
2022/08/04 01:08:24;;;;;;;0.83;0.73;;;;;;;;;;5067688;28;20200;-82
2022/08/04 01:10:59;;;;;;;1.20;1.10;;;;;;;;;;5055633;28;20204;-81
2022/08/04 01:13:35;;;;;;;4.60;1.00;;;;;;;;;;5068837;28;20201;-81
2022/08/04 01:16:04;;;;;;;0.63;0.63;;;;;;;;;;5053521;28;20206;-81
2022/08/04 01:18:36;;;;;;;1.03;1.03;;;;;;;;;;5057714;28;20225;-82
2022/08/04 01:21:12;;;;;;;0.30;0.30;;;;;;;;;;5055491;28;20222;-82
2022/08/04 01:23:50;;;;;;;0.30;0.30;;;;;;;;;;5074014;28;20197;-82
2022/08/04 01:26:32;;;;;;;0.20;0.20;;;;;;;;;;5067890;28;20194;-82
2022/08/04 01:29:23;;;;;;;2.30;1.60;;;;;;;;;;5058113;28;20200;-82
2022/08/04 01:32:00;;;;;;;3.40;1.90;;;;;;;;;;5070966;28;20623;-81
2022/08/04 01:34:30;;;;;;;0.63;0.63;;;;;;;;;;5073218;28;20226;-81
2022/08/04 01:37:00;;;;;;;2.30;1.67;;;;;;;;;;5070280;28;20194;-81
2022/08/04 01:39:42;;;;;;;0.77;0.77;;;;;;;;;;5053662;28;20290;-82
2022/08/04 01:42:11;;;;;;;1.50;1.40;;;;;;;;;;5068450;28;20202;-82
2022/08/04 01:45:01;;;;;;;0.20;0.20;;;;;;;;;;5072714;28;20264;-82
2022/08/04 01:47:30;;;;;;;0.20;0.20;;;;;;;;;;5070043;28;20259;-81
2022/08/04 01:50:04;;;;;;;0.30;0.30;;;;;;;;;;5054270;28;20205;-82
2022/08/04 01:52:35;;;;;;;2.20;2.10;;;;;;;;;;5060515;28;20215;-82
2022/08/04 01:55:04;;;;;;;0.20;0.20;;;;;;;;;;5072577;28;20209;-81
2022/08/04 01:57:33;;;;;;;0.20;0.20;;;;;;;;;;5072850;28;20212;-82
2022/08/04 02:00:17;;;;;;;0.40;0.40;;;;;;;;;;5073364;28;20233;-81
2022/08/04 02:02:45;;;;;;;0.50;0.50;;;;;;;;;;5063221;28;20221;-82
2022/08/04 02:05:15;;;;;;;2.00;1.67;;;;;;;;;;5070353;28;20227;-82
2022/08/04 02:07:48;;;;;;;1.50;1.40;;;;;;;;;;5073773;28;20255;-82
2022/08/04 02:10:22;;;;;;;1.60;1.37;;;;;;;;;;5067267;28;20200;-82
2022/08/04 02:12:56;;;;;;;0.30;0.30;;;;;;;;;;5054145;28;20205;-82
2022/08/04 02:15:28;;;;;;;0.40;0.40;;;;;;;;;;5061495;28;20204;-81
2022/08/04 02:18:00;;;;;;;7.97;1.63;;;;;;;;;;5071675;28;20197;-81
2022/08/04 02:20:30;;;;;;;0.30;0.30;;;;;;;;;;5072911;28;20207;-81
2022/08/04 02:22:59;;;;;;;0.47;0.47;;;;;;;;;;5072846;28;20196;-81
2022/08/04 02:25:29;;;;;;;1.23;1.13;;;;;;;;;;5073337;28;20215;-81
2022/08/04 02:28:15;;;;;;;0.20;0.20;;;;;;;;;;5055765;28;20259;-81
2022/08/04 02:30:50;;;;;;;0.30;0.30;;;;;;;;;;5051034;28;20267;-81
2022/08/04 02:33:20;;;;;;;0.20;0.20;;;;;;;;;;5053801;28;20214;-81
2022/08/04 02:35:50;;;;;;;0.63;0.60;;;;;;;;;;5065887;28;20247;-81
2022/08/04 02:38:28;;;;;;;0.20;0.20;;;;;;;;;;5053712;28;20219;-81
2022/08/04 02:40:56;;;;;;;0.20;0.20;;;;;;;;;;5053293;28;20247;-81
2022/08/04 02:43:28;;;;;;;0.40;0.40;;;;;;;;;;5052471;28;20200;-81
2022/08/04 02:46:18;;;;;;;0.20;0.20;;;;;;;;;;5052270;28;20255;-81
2022/08/04 02:48:48;;;;;;;0.20;0.20;;;;;;;;;;5067657;28;20201;-81
2022/08/04 02:51:18;;;;;;;0.20;0.20;;;;;;;;;;5063697;28;20210;-81
2022/08/04 02:53:47;;;;;;;0.20;0.20;;;;;;;;;;5052551;28;20287;-82
2022/08/04 02:56:19;;;;;;;5.50;5.10;;;;;;;;;;5059249;28;20240;-81
2022/08/04 02:58:49;;;;;;;0.63;0.63;;;;;;;;;;5052149;28;20264;-81
2022/08/04 03:01:19;;;;;;;1.80;1.20;;;;;;;;;;5065623;28;20200;-81
2022/08/04 03:03:52;;;;;;;0.40;0.40;;;;;;;;;;5059531;28;20277;-80
2022/08/04 03:06:29;;;;;;;0.20;0.20;;;;;;;;;;5072943;28;20204;-81
2022/08/04 03:09:12;;;;;;;0.20;0.20;;;;;;;;;;5060277;28;20202;-80
2022/08/04 03:12:04;;;;;;;0.30;0.30;;;;;;;;;;5035097;28;20209;-80
2022/08/04 03:14:45;;;;;;;0.40;0.40;;;;;;;;;;5045438;28;20223;-81
2022/08/04 03:17:31;;;;;;;0.20;0.20;;;;;;;;;;5076429;28;20213;-81
2022/08/04 03:20:21;;;;;;;3.73;2.37;;;;;;;;;;5070872;28;20217;-80
2022/08/04 03:23:08;;;;;;;0.47;0.47;;;;;;;;;;5069407;28;20214;-81
2022/08/04 03:26:03;;;;;;;0.57;0.57;;;;;;;;;;5076209;28;20285;-81
2022/08/04 03:28:49;;;;;;;0.33;0.33;;;;;;;;;;5055988;28;20258;-80
2022/08/04 03:31:39;;;;;;;1.40;1.33;;;;;;;;;;5060846;28;20228;-82
2022/08/04 03:34:17;;;;;;;0.20;0.20;;;;;;;;;;5062078;28;20236;-82
2022/08/04 03:37:01;;;;;;;1.77;1.67;;;;;;;;;;5065714;28;20224;-81
2022/08/04 03:39:38;;;;;;;1.57;1.40;;;;;;;;;;5062299;28;20354;-81
2022/08/04 03:42:33;;;;;;;0.20;0.20;;;;;;;;;;5073188;28;20213;-81
2022/08/04 03:45:22;;;;;;;0.73;0.73;;;;;;;;;;5012662;28;20225;-81
2022/08/04 03:48:02;;;;;;;5.20;2.10;;;;;;;;;;5062731;28;20199;-81
2022/08/04 03:50:38;;;;;;;0.57;0.57;;;;;;;;;;5074279;28;20294;-81
2022/08/04 03:53:30;;;;;;;0.20;0.20;;;;;;;;;;5071557;28;20300;-81
2022/08/04 03:56:11;;;;;;;0.20;0.20;;;;;;;;;;5056548;28;20193;-81
2022/08/04 03:59:08;;;;;;;0.20;0.20;;;;;;;;;;5058877;28;20201;-81
2022/08/04 04:01:55;;;;;;;0.20;0.20;;;;;;;;;;5061319;28;20209;-81
2022/08/04 04:04:39;;;;;;;0.20;0.20;;;;;;;;;;5055233;28;20205;-81
2022/08/04 04:07:31;;;;;;;0.20;0.20;;;;;;;;;;5056288;28;20292;-81
2022/08/04 04:10:25;;;;;;;0.80;0.80;;;;;;;;;;5037932;28;20199;-81
2022/08/04 04:13:13;;;;;;;0.20;0.20;;;;;;;;;;5060575;28;20214;-81
2022/08/04 04:16:00;;;;;;;0.27;0.27;;;;;;;;;;5055609;28;20209;-81
2022/08/04 04:18:39;;;;;;;0.40;0.40;;;;;;;;;;5054465;28;20211;-81
2022/08/04 04:21:22;;;;;;;0.40;0.40;;;;;;;;;;5067248;28;20229;-82
2022/08/04 04:23:59;;;;;;;0.20;0.20;;;;;;;;;;5065077;28;20204;-81
2022/08/04 04:26:38;;;;;;;0.23;0.23;;;;;;;;;;5061685;28;20205;-81
2022/08/04 04:29:14;;;;;;;0.33;0.33;;;;;;;;;;5062007;28;20209;-81
2022/08/04 04:31:48;;;;;;;1.80;1.70;;;;;;;;;;5062902;28;20240;-81
2022/08/04 04:34:21;;;;;;;0.50;0.50;;;;;;;;;;5059049;28;20229;-81
2022/08/04 04:36:56;;;;;;;5.93;1.63;;;;;;;;;;5065732;28;20205;-81
2022/08/04 04:39:31;;;;;;;0.37;0.37;;;;;;;;;;5060897;28;20208;-81
2022/08/04 04:42:11;;;;;;;1.47;1.00;;;;;;;;;;5062634;28;20244;-81
2022/08/04 04:44:50;;;;;;;0.20;0.20;;;;;;;;;;5062833;28;20279;-81
2022/08/04 04:47:23;;;;;;;0.30;0.30;;;;;;;;;;5057258;28;20209;-81
2022/08/04 04:50:14;;;;;;;3.63;2.10;;;;;;;;;;5055948;28;20205;-81
2022/08/04 04:52:46;;;;;;;4.80;1.50;;;;;;;;;;5073931;28;20204;-81
2022/08/04 04:55:19;;;;;;;2.47;1.23;;;;;;;;;;5074261;28;20191;-81
2022/08/04 04:57:50;;;;;;;0.20;0.20;;;;;;;;;;5074164;28;20192;-81
2022/08/04 05:00:24;;;;;;;0.20;0.20;;;;;;;;;;5056201;28;20212;-81
2022/08/04 05:03:07;;;;;;;0.37;0.37;;;;;;;;;;5054550;28;20203;-81
2022/08/04 05:06:07;;;;;;;0.20;0.20;;;;;;;;;;5050093;28;20303;-81
2022/08/04 05:08:52;;;;;;;2.10;2.00;;;;;;;;;;4995222;28;20216;-81
2022/08/04 05:11:40;;;;;;;2.07;1.33;;;;;;;;;;5053071;28;20216;-81
2022/08/04 05:14:12;;;;;;;2.73;1.40;;;;;;;;;;5055036;28;20206;-81
2022/08/04 05:17:03;;;;;;;1.03;0.73;;;;;;;;;;5061740;28;20208;-81
2022/08/04 05:19:39;;;;;;;0.30;0.30;;;;;;;;;;5071492;28;20203;-81
2022/08/04 05:22:10;;;;;;;0.33;0.33;;;;;;;;;;5060402;28;20254;-81
2022/08/04 05:24:43;;;;;;;4.83;4.63;;;;;;;;;;5054644;28;20215;-81
2022/08/04 05:27:13;;;;;;;2.37;0.33;;;;;;;;;;5065998;28;20212;-81
2022/08/04 05:29:47;;;;;;;0.40;0.40;;;;;;;;;;5071661;28;20196;-81
2022/08/04 05:32:16;;;;;;;2.30;1.03;;;;;;;;;;5061937;28;20221;-81
2022/08/04 05:34:49;;;;;;;2.33;1.20;;;;;;;;;;5060242;28;20227;-81
2022/08/04 05:37:19;;;;;;;0.20;0.20;;;;;;;;;;5059128;28;20212;-81
2022/08/04 05:39:49;;;;;;;0.40;0.37;;;;;;;;;;5061352;28;20212;-81
2022/08/04 05:42:17;;;;;;;3.47;1.63;;;;;;;;;;5071111;28;20212;-81
2022/08/04 05:44:47;;;;;;;2.63;1.70;;;;;;;;;;5070137;28;20206;-81
2022/08/04 05:47:20;;;;;;;0.33;0.33;;;;;;;;;;5056107;28;20207;-80
2022/08/04 05:49:49;;;;;;;0.20;0.20;;;;;;;;;;5073708;28;20196;-81
2022/08/04 05:52:28;;;;;;;0.87;0.87;;;;;;;;;;5060014;28;20210;-80
2022/08/04 05:54:58;;;;;;;0.20;0.20;;;;;;;;;;5072732;28;20219;-80
2022/08/04 05:57:26;;;;;;;0.33;0.33;;;;;;;;;;5060970;28;20201;-81
2022/08/04 06:00:01;;;;;;;0.50;0.50;;;;;;;;;;5060639;28;20228;-81
2022/08/04 06:02:50;;;;;;;0.53;0.53;;;;;;;;;;5060696;28;20245;-81
2022/08/04 06:05:19;;;;;;;0.47;0.47;;;;;;;;;;5065198;28;20290;-81
2022/08/04 06:07:48;;;;;;;0.53;0.53;;;;;;;;;;5061567;28;20207;-80
2022/08/04 06:10:38;;;;;;;0.30;0.30;;;;;;;;;;5061165;28;20214;-82
2022/08/04 06:13:08;;;;;;;0.70;0.70;;;;;;;;;;5069791;28;20202;-81
2022/08/04 06:15:59;;;;;;;0.50;0.50;;;;;;;;;;5054512;28;20299;-81
2022/08/04 06:18:29;;;;;;;2.30;2.10;;;;;;;;;;5071556;28;20216;-81
2022/08/04 06:21:19;;;;;;;0.73;0.70;;;;;;;;;;5054672;28;20225;-81
2022/08/04 06:23:49;;;;;;;0.43;0.43;;;;;;;;;;5060470;28;20199;-81
2022/08/04 06:26:25;;;;;;;0.20;0.20;;;;;;;;;;5057404;28;20251;-81
2022/08/04 06:28:55;;;;;;;1.27;1.27;;;;;;;;;;5068941;28;20205;-82
2022/08/04 06:31:42;;;;;;;0.30;0.30;;;;;;;;;;5066695;28;20328;-81
2022/08/04 06:34:32;;;;;;;0.20;0.20;;;;;;;;;;5053484;28;20236;-81
2022/08/04 06:37:01;;;;;;;1.80;0.73;;;;;;;;;;5064705;28;20225;-81
2022/08/04 06:39:30;;;;;;;0.30;0.30;;;;;;;;;;5059741;28;20199;-81
2022/08/04 06:41:59;;;;;;;1.03;0.83;;;;;;;;;;5072437;28;20255;-80
2022/08/04 06:44:49;;;;;;;1.90;1.70;;;;;;;;;;5052263;28;20216;-81
2022/08/04 06:47:20;;;;;;;0.93;0.93;;;;;;;;;;5069988;28;20198;-80
2022/08/04 06:49:50;;;;;;;0.77;0.77;;;;;;;;;;5072328;28;20229;-80
2022/08/04 06:52:39;;;;;;;1.97;1.90;;;;;;;;;;5059435;28;20193;-81
2022/08/04 06:55:08;;;;;;;0.20;0.20;;;;;;;;;;5068885;28;20240;-80
2022/08/04 06:57:37;;;;;;;1.13;1.10;;;;;;;;;;5060666;28;20206;-80
2022/08/04 07:00:08;;;;;;;5.57;0.90;;;;;;;;;;5041538;28;20203;-80
2022/08/04 07:02:40;;;;;;;0.40;0.40;;;;;;;;;;5062489;28;20224;-80
2022/08/04 07:05:09;;;;;;;0.40;0.40;;;;;;;;;;5065427;28;20199;-81
2022/08/04 07:07:37;;;;;;;0.67;0.47;;;;;;;;;;5053253;28;20220;-81
2022/08/04 07:10:26;;;;;;;1.13;1.03;;;;;;;;;;5056083;28;20212;-81
2022/08/04 07:12:55;;;;;;;0.30;0.30;;;;;;;;;;5053132;28;20222;-81
2022/08/04 07:15:25;;;;;;;1.00;0.90;;;;;;;;;;5053370;28;20212;-81
2022/08/04 07:17:58;;;;;;;0.90;0.90;;;;;;;;;;5076644;28;20207;-81
2022/08/04 07:20:28;;;;;;;1.10;1.00;;;;;;;;;;5058348;28;20205;-80
2022/08/04 07:23:03;;;;;;;1.50;1.40;;;;;;;;;;5055875;28;20313;-81
2022/08/04 07:25:32;;;;;;;1.37;1.07;;;;;;;;;;5073034;28;20204;-80
2022/08/04 07:28:22;;;;;;;0.80;0.70;;;;;;;;;;5067901;28;20283;-83
2022/08/04 07:30:51;;;;;;;0.80;0.80;;;;;;;;;;5053822;28;20230;-79
2022/08/04 07:33:21;;;;;;;4.53;1.47;;;;;;;;;;5063418;28;20206;-79
2022/08/04 07:35:53;;;;;;;3.40;1.60;;;;;;;;;;5051612;28;20230;-79
2022/08/04 07:38:39;;;;;;;5.00;0.90;;;;;;;;;;5057082;28;20196;-79
2022/08/04 07:41:21;;;;;;;0.60;0.60;;;;;;;;;;5048866;28;20269;-79
2022/08/04 07:44:05;;;;;;;0.90;0.90;;;;;;;;;;5055322;28;20322;-79
2022/08/04 07:46:34;;;;;;;0.60;0.60;;;;;;;;;;5055276;28;20315;-79
2022/08/04 07:49:04;;;;;;;7.57;0.93;;;;;;;;;;5051251;28;20255;-79
2022/08/04 07:51:34;;;;;;;1.03;0.57;;;;;;;;;;5064391;28;20281;-79
2022/08/04 07:54:04;;;;;;;2.57;1.03;;;;;;;;;;5060784;28;20217;-79
2022/08/04 07:56:33;;;;;;;1.40;1.30;;;;;;;;;;5062284;28;20221;-80
2022/08/04 07:59:01;;;;;;;0.73;0.73;;;;;;;;;;5058901;28;20217;-79
2022/08/04 08:01:30;;;;;;;1.77;1.30;;;;;;;;;;5061671;28;20226;-79
2022/08/04 08:03:59;;;;;;;1.33;0.90;;;;;;;;;;5064645;28;20258;-79
2022/08/04 08:06:30;;;;;;;2.27;1.27;;;;;;;;;;5062701;28;20251;-79
2022/08/04 08:09:07;;;;;;;5.40;1.73;;;;;;;;;;5059517;28;20214;-79
2022/08/04 08:11:41;;;;;;;2.33;1.50;;;;;;;;;;5060559;28;20266;-79
2022/08/04 08:14:30;;;;;;;2.23;1.67;;;;;;;;;;5060909;28;20219;-79
2022/08/04 08:17:00;;;;;;;1.17;0.77;;;;;;;;;;5060829;28;20244;-79
2022/08/04 08:19:29;;;;;;;0.60;0.60;;;;;;;;;;5064726;28;20230;-80
2022/08/04 08:21:59;;;;;;;1.60;1.60;;;;;;;;;;5057277;28;20230;-80
2022/08/04 08:24:29;;;;;;;1.77;0.63;;;;;;;;;;5052492;28;20261;-80
2022/08/04 08:26:58;;;;;;;6.90;1.43;;;;;;;;;;5060076;28;20227;-79
2022/08/04 08:29:28;;;;;;;0.50;0.50;;;;;;;;;;5061715;28;20366;-80
2022/08/04 08:31:56;;;;;;;1.73;0.70;;;;;;;;;;5065344;28;20227;-80
2022/08/04 08:34:34;;;;;;;1.20;1.17;;;;;;;;;;5057502;28;20225;-79
2022/08/04 08:37:07;;;;;;;1.00;1.00;;;;;;;;;;5054450;28;20247;-80
2022/08/04 08:39:36;;;;;;;1.70;1.27;;;;;;;;;;5059205;28;20252;-80
2022/08/04 08:42:32;;;;;;;1.50;1.17;;;;;;;;;;5063169;28;20230;-79
2022/08/04 08:45:19;;;;;;;0.90;0.43;;;;;;;;;;5058623;28;20222;-80
2022/08/04 08:47:55;;;;;;;0.93;0.93;;;;;;;;;;5053344;28;20217;-80
2022/08/04 08:50:52;;;;;;;0.40;0.40;;;;;;;;;;5064343;28;20223;-80
2022/08/04 08:53:38;;;;;;;0.53;0.53;;;;;;;;;;5064367;28;20231;-80
2022/08/04 08:56:15;;;;;;;0.80;0.80;;;;;;;;;;5047763;28;20237;-80
2022/08/04 08:58:48;;;;;;;1.37;0.90;;;;;;;;;;5061385;28;20220;-81
2022/08/04 09:01:26;;;;;;;1.00;0.70;;;;;;;;;;5061424;28;20223;-80
2022/08/04 09:04:25;;;;;;;1.80;1.27;;;;;;;;;;5052362;28;20219;-80
2022/08/04 09:07:07;;;;;;;0.60;0.60;;;;;;;;;;5052607;28;20224;-80
2022/08/04 09:09:46;;;;;;;1.53;1.43;;;;;;;;;;5054174;28;20236;-80
2022/08/04 09:12:21;;;;;;;2.67;1.13;;;;;;;;;;5055875;28;20225;-80
2022/08/04 09:14:54;;;;;;;0.70;0.70;;;;;;;;;;5058770;28;20231;-80
2022/08/04 09:17:28;;;;;;;1.27;0.93;;;;;;;;;;5053886;28;20218;-78
2022/08/04 09:19:59;;;;;;;0.20;0.20;;;;;;;;;;5058484;28;20223;-81
2022/08/04 09:22:31;;;;;;;0.90;0.63;;;;;;;;;;5058715;28;20249;-80
2022/08/04 09:25:01;;;;;;;1.93;1.03;;;;;;;;;;5061669;28;20314;-81
2022/08/04 09:27:38;;;;;;;0.57;0.57;;;;;;;;;;5057354;28;20224;-80
2022/08/04 09:30:08;;;;;;;1.70;0.83;;;;;;;;;;5076900;28;20238;-81
2022/08/04 09:32:42;;;;;;;2.77;1.90;;;;;;;;;;5056737;28;20233;-80
2022/08/04 09:35:23;;;;;;;0.80;0.80;;;;;;;;;;5058821;28;20249;-80
2022/08/04 09:38:01;;;;;;;1.33;0.90;;;;;;;;;;5059273;28;20219;-80
2022/08/04 09:40:33;;;;;;;1.83;1.63;;;;;;;;;;5064838;28;20221;-81
2022/08/04 09:43:28;;;;;;;3.07;1.80;;;;;;;;;;5058937;28;20216;-81
2022/08/04 09:46:20;;;;;;;1.07;0.97;;;;;;;;;;5059305;28;20213;-81
2022/08/04 09:48:52;;;;;;;0.93;0.93;;;;;;;;;;5063693;28;20319;-81
2022/08/04 09:51:24;;;;;;;0.80;0.80;;;;;;;;;;5064699;28;20276;-81
2022/08/04 09:54:26;;;;;;;5.07;1.70;;;;;;;;;;5062925;28;20290;-81
2022/08/04 09:57:01;;;;;;;1.27;1.17;;;;;;;;;;5064758;28;20202;-80
2022/08/04 09:59:36;;;;;;;4.73;1.60;;;;;;;;;;5077919;28;20202;-80
2022/08/04 10:02:07;;;;;;;1.93;1.30;;;;;;;;;;5077769;28;20200;-80
2022/08/04 10:04:37;;;;;;;5.33;1.40;;;;;;;;;;5061195;28;20203;-81
2022/08/04 10:07:12;;;;;;;0.33;0.33;;;;;;;;;;5058820;28;20325;-81
2022/08/04 10:09:48;;;;;;;2.33;1.00;;;;;;;;;;5057572;28;20297;-81
2022/08/04 10:12:22;;;;;;;4.47;1.13;;;;;;;;;;5064600;28;20225;-81
2022/08/04 10:14:54;;;;;;;2.20;1.73;;;;;;;;;;5062927;28;20209;-81
2022/08/04 10:17:31;;;;;;;1.73;1.03;;;;;;;;;;5054226;28;20253;-81
2022/08/04 10:20:04;;;;;;;1.10;1.00;;;;;;;;;;5067430;28;20190;-81
2022/08/04 10:22:37;;;;;;;1.97;1.17;;;;;;;;;;5057301;28;20208;-81
2022/08/04 10:25:30;;;;;;;1.20;1.10;;;;;;;;;;5062506;28;20221;-80
2022/08/04 10:28:21;;;;;;;2.57;2.47;;;;;;;;;;5068770;28;20258;-80
2022/08/04 10:30:56;;;;;;;0.50;0.50;;;;;;;;;;5065145;28;20236;-80
2022/08/04 10:33:26;;;;;;;1.60;1.00;;;;;;;;;;5054302;28;20211;-81
2022/08/04 10:35:59;;;;;;;2.20;1.10;;;;;;;;;;5061372;28;20230;-80
2022/08/04 10:38:31;;;;;;;8.03;2.00;;;;;;;;;;5065947;28;20548;-80
2022/08/04 10:41:02;;;;;;;1.50;0.80;;;;;;;;;;5064884;28;20190;-80
2022/08/04 10:43:38;;;;;;;2.50;2.30;;;;;;;;;;5057185;28;20222;-80
2022/08/04 10:46:10;;;;;;;3.80;1.33;;;;;;;;;;5065825;28;20213;-80
2022/08/04 10:48:43;;;;;;;4.67;1.03;;;;;;;;;;5062053;28;20226;-80
2022/08/04 10:51:19;;;;;;;1.60;1.17;;;;;;;;;;5056867;28;20284;-81
2022/08/04 10:53:52;;;;;;;0.47;0.47;;;;;;;;;;5063921;28;20272;-80
2022/08/04 10:56:24;;;;;;;4.90;1.10;;;;;;;;;;5058894;28;20207;-80
2022/08/04 10:58:54;;;;;;;1.33;0.83;;;;;;;;;;5059158;28;20259;-80
2022/08/04 11:01:26;;;;;;;8.47;1.07;;;;;;;;;;5063633;28;20205;-80
2022/08/04 11:04:22;;;;;;;2.20;1.20;;;;;;;;;;5059235;28;20220;-80
2022/08/04 11:06:56;;;;;;;3.03;1.73;;;;;;;;;;5054512;28;20288;-80
2022/08/04 11:09:24;;;;;;;0.83;0.80;;;;;;;;;;5057930;28;20289;-80
2022/08/04 11:11:55;;;;;;;0.97;0.97;;;;;;;;;;5057969;28;20246;-80
2022/08/04 11:14:32;;;;;;;0.60;0.60;;;;;;;;;;5061853;28;20208;-80
2022/08/04 11:17:05;;;;;;;1.33;1.10;;;;;;;;;;5056232;28;20293;-80
2022/08/04 11:19:35;;;;;;;1.13;1.13;;;;;;;;;;5057887;28;20232;-80
2022/08/04 11:22:16;;;;;;;1.47;1.37;;;;;;;;;;5064983;28;20278;-80
2022/08/04 11:24:46;;;;;;;1.10;0.97;;;;;;;;;;5065030;28;20215;-81
2022/08/04 11:27:15;;;;;;;0.70;0.70;;;;;;;;;;5052327;28;20220;-80
2022/08/04 11:29:51;;;;;;;4.97;1.90;;;;;;;;;;5058221;28;20294;-81
2022/08/04 11:32:21;;;;;;;0.63;0.63;;;;;;;;;;5055029;28;20207;-81
2022/08/04 11:34:53;;;;;;;0.43;0.43;;;;;;;;;;5064658;28;20220;-82
2022/08/04 11:37:24;;;;;;;0.50;0.50;;;;;;;;;;5060107;28;20209;-81
2022/08/04 11:39:53;;;;;;;1.80;0.73;;;;;;;;;;5071471;28;20277;-81
2022/08/04 11:42:24;;;;;;;0.47;0.47;;;;;;;;;;5057147;28;20200;-81
2022/08/04 11:44:55;;;;;;;1.50;1.23;;;;;;;;;;5062753;28;20210;-81
2022/08/04 11:47:29;;;;;;;1.80;0.77;;;;;;;;;;5061456;28;20198;-81
2022/08/04 11:50:01;;;;;;;0.27;0.27;;;;;;;;;;5063710;28;20212;-81
2022/08/04 11:52:31;;;;;;;2.77;1.10;;;;;;;;;;5063303;28;20200;-81
2022/08/04 11:55:00;;;;;;;0.40;0.40;;;;;;;;;;5060283;28;20291;-81
2022/08/04 11:57:29;;;;;;;2.60;1.30;;;;;;;;;;5058174;28;20216;-80
2022/08/04 12:00:08;;;;;;;0.40;0.40;;;;;;;;;;5060520;28;20295;-81
2022/08/04 12:02:59;;;;;;;1.67;0.90;;;;;;;;;;5059394;28;20472;-81
2022/08/04 12:05:31;;;;;;;0.47;0.30;;;;;;;;;;5058437;28;20286;-80
2022/08/04 12:08:23;;;;;;;0.23;0.23;;;;;;;;;;5058665;28;20254;-81
2022/08/04 12:10:58;;;;;;;4.50;1.77;;;;;;;;;;5057843;28;20223;-81
2022/08/04 12:13:32;;;;;;;0.40;0.40;;;;;;;;;;5060110;28;20208;-80
2022/08/04 12:16:03;;;;;;;0.83;0.77;;;;;;;;;;5059538;28;20209;-81
2022/08/04 12:18:39;;;;;;;1.63;1.07;;;;;;;;;;5067158;28;20294;-81
2022/08/04 12:21:08;;;;;;;0.60;0.60;;;;;;;;;;5062787;28;20204;-80
2022/08/04 12:23:39;;;;;;;0.43;0.43;;;;;;;;;;5055831;28;20226;-79
2022/08/04 12:26:10;;;;;;;0.97;0.97;;;;;;;;;;5063110;28;20204;-79
2022/08/04 12:28:40;;;;;;;1.13;0.80;;;;;;;;;;5063115;28;20205;-79
2022/08/04 12:31:31;;;;;;;0.50;0.50;;;;;;;;;;5059463;28;20246;-80
2022/08/04 12:34:04;;;;;;;2.63;1.10;;;;;;;;;;5067373;28;20219;-78
2022/08/04 12:36:37;;;;;;;2.07;1.20;;;;;;;;;;5062188;28;20213;-78
2022/08/04 12:39:10;;;;;;;0.47;0.47;;;;;;;;;;5064027;28;20201;-78
2022/08/04 12:41:40;;;;;;;2.10;1.00;;;;;;;;;;5069604;28;20208;-79
2022/08/04 12:44:11;;;;;;;2.13;1.20;;;;;;;;;;5060748;28;20304;-78
2022/08/04 12:47:00;;;;;;;3.13;1.33;;;;;;;;;;5060848;28;20236;-79
2022/08/04 12:49:50;;;;;;;1.67;1.17;;;;;;;;;;5061903;28;20251;-78
2022/08/04 12:52:27;;;;;;;1.47;1.37;;;;;;;;;;5062968;28;20197;-79
2022/08/04 12:55:16;;;;;;;1.63;1.30;;;;;;;;;;5061949;28;20223;-78
2022/08/04 12:57:45;;;;;;;2.83;1.30;;;;;;;;;;5065486;28;20204;-79
2022/08/04 13:00:23;;;;;;;2.13;1.57;;;;;;;;;;5065634;28;20596;-79
2022/08/04 13:03:01;;;;;;;6.80;1.03;;;;;;;;;;5068830;28;20279;-79
2022/08/04 13:05:31;;;;;;;2.20;0.90;;;;;;;;;;5057282;28;20264;-79
2022/08/04 13:08:01;;;;;;;2.23;1.20;;;;;;;;;;5061117;28;20209;-79
2022/08/04 13:10:30;;;;;;;3.73;1.30;;;;;;;;;;5063453;28;20231;-80
2022/08/04 13:13:01;;;;;;;0.70;0.70;;;;;;;;;;5068587;28;20197;-80
2022/08/04 13:15:32;;;;;;;2.67;1.47;;;;;;;;;;5065493;28;20247;-80
2022/08/04 13:18:15;;;;;;;1.00;0.90;;;;;;;;;;5059311;28;20201;-80
2022/08/04 13:20:45;;;;;;;1.27;1.17;;;;;;;;;;5054508;28;20202;-79
2022/08/04 13:23:15;;;;;;;1.40;0.70;;;;;;;;;;5053816;28;20209;-79
2022/08/04 13:25:50;;;;;;;5.80;1.37;;;;;;;;;;5058272;28;20230;-80
2022/08/04 13:28:42;;;;;;;1.37;1.10;;;;;;;;;;5058687;28;20333;-84
2022/08/04 13:31:12;;;;;;;2.47;1.03;;;;;;;;;;5062108;28;20243;-83
2022/08/04 13:33:46;;;;;;;2.90;1.27;;;;;;;;;;5056801;28;20201;-84
2022/08/04 13:36:18;;;;;;;0.40;0.40;;;;;;;;;;5066932;28;20329;-85
2022/08/04 13:38:49;;;;;;;1.10;1.00;;;;;;;;;;5066765;28;20214;-85
2022/08/04 13:41:18;;;;;;;2.57;2.37;;;;;;;;;;5054217;28;20201;-85
2022/08/04 13:43:50;;;;;;;9.40;1.47;;;;;;;;;;5066929;28;20193;-85
2022/08/04 13:46:39;;;;;;;0.73;0.73;;;;;;;;;;5054115;28;20203;-85
2022/08/04 13:49:18;;;;;;;2.07;1.70;;;;;;;;;;5053634;28;20204;-85
2022/08/04 13:52:09;;;;;;;2.03;1.13;;;;;;;;;;5070403;28;20193;-85
2022/08/04 13:54:42;;;;;;;0.63;0.63;;;;;;;;;;5073526;28;20205;-85
2022/08/04 13:57:13;;;;;;;0.63;0.63;;;;;;;;;;5069145;28;20210;-85
2022/08/04 13:59:48;;;;;;;0.70;0.70;;;;;;;;;;5053293;28;20260;-85
2022/08/04 14:02:25;;;;;;;1.87;1.47;;;;;;;;;;5065747;28;20199;-86
2022/08/04 14:04:57;;;;;;;5.60;1.27;;;;;;;;;;5070533;28;20229;-85
2022/08/04 14:07:28;;;;;;;2.30;1.30;;;;;;;;;;5073312;28;20207;-85
2022/08/04 14:09:57;;;;;;;0.50;0.50;;;;;;;;;;5072820;28;20206;-85
2022/08/04 14:12:31;;;;;;;1.47;0.97;;;;;;;;;;5072771;28;20247;-85
2022/08/04 14:15:37;;;;;;;2.07;1.50;;;;;;;;;;5070829;28;20232;-85
2022/08/04 14:18:27;;;;;;;5.67;1.07;;;;;;;;;;5053875;28;20293;-85
2022/08/04 14:21:00;;;;;;;4.30;1.40;;;;;;;;;;5066307;28;20240;-85
2022/08/04 14:23:38;;;;;;;0.60;0.60;;;;;;;;;;5061668;28;20287;-85
2022/08/04 14:26:23;;;;;;;1.37;1.20;;;;;;;;;;5070461;28;20205;-85
2022/08/04 14:29:11;;;;;;;2.10;0.90;;;;;;;;;;5071167;28;20230;-86
2022/08/04 14:32:07;;;;;;;1.23;1.13;;;;;;;;;;5061726;28;20226;-85
2022/08/04 14:34:42;;;;;;;0.70;0.70;;;;;;;;;;5053335;28;20236;-85
2022/08/04 14:37:14;;;;;;;3.40;0.93;;;;;;;;;;5066081;28;20205;-85
2022/08/04 14:39:49;;;;;;;1.60;0.93;;;;;;;;;;5053392;28;20208;-85
2022/08/04 14:42:41;;;;;;;0.97;0.93;;;;;;;;;;5069509;28;20294;-85
2022/08/04 14:45:11;;;;;;;1.87;1.77;;;;;;;;;;5068933;28;20312;-85
2022/08/04 14:47:43;;;;;;;1.20;0.77;;;;;;;;;;5053399;28;20262;-85
2022/08/04 14:50:21;;;;;;;1.73;0.90;;;;;;;;;;5066650;28;20209;-86
2022/08/04 14:53:03;;;;;;;1.80;1.40;;;;;;;;;;5062592;28;20201;-85
2022/08/04 14:55:36;;;;;;;1.90;1.50;;;;;;;;;;5070214;28;20291;-86
2022/08/04 14:58:05;;;;;;;0.60;0.60;;;;;;;;;;5060635;28;20209;-85
2022/08/04 15:00:56;;;;;;;1.30;1.03;;;;;;;;;;5053053;28;20209;-86
2022/08/04 15:03:25;;;;;;;1.23;1.13;;;;;;;;;;5066478;28;20202;-85
2022/08/04 15:05:57;;;;;;;2.90;1.07;;;;;;;;;;5053558;28;20207;-86
2022/08/04 15:08:34;;;;;;;2.60;1.33;;;;;;;;;;5055655;28;20197;-85
2022/08/04 15:11:04;;;;;;;1.77;0.90;;;;;;;;;;5051489;28;20206;-86
2022/08/04 15:13:33;;;;;;;1.83;1.37;;;;;;;;;;5075501;28;20213;-86
2022/08/04 15:16:02;;;;;;;1.43;0.87;;;;;;;;;;5086157;28;20201;-86
2022/08/04 15:18:37;;;;;;;0.73;0.60;;;;;;;;;;5052772;28;20195;-86
2022/08/04 15:21:07;;;;;;;1.03;0.60;;;;;;;;;;5053885;28;20210;-85
2022/08/04 15:23:37;;;;;;;0.70;0.70;;;;;;;;;;5081866;28;20207;-86
2022/08/04 15:26:10;;;;;;;0.60;0.60;;;;;;;;;;5057637;28;20215;-86
2022/08/04 15:28:41;;;;;;;0.60;0.60;;;;;;;;;;5071100;28;20243;-86
2022/08/04 15:31:11;;;;;;;0.60;0.60;;;;;;;;;;5056671;28;20244;-86
2022/08/04 15:34:00;;;;;;;0.87;0.70;;;;;;;;;;5058528;28;20292;-86
2022/08/04 15:36:34;;;;;;;0.93;0.93;;;;;;;;;;5066572;28;20217;-86